createdAt,value
2023-03-16T00:00:20.148Z,4.03
2023-03-16T00:03:22.156Z,3.63
2023-03-16T00:06:25.667Z,3.60
2023-03-16T00:09:31.367Z,4.07
2023-03-16T00:12:34.910Z,3.50
2023-03-16T00:15:36.645Z,4.10
2023-03-16T00:18:41.230Z,3.95
2023-03-16T00:21:43.090Z,3.75
2023-03-16T00:24:44.823Z,4.50
2023-03-16T00:27:46.582Z,3.83
2023-03-16T00:30:48.640Z,4.07
2023-03-16T00:33:51.111Z,4.18
2023-03-16T00:36:52.933Z,3.67
2023-03-16T00:39:57.963Z,3.95
2023-03-16T00:42:59.697Z,3.70
2023-03-16T00:46:06.813Z,4.15
2023-03-16T00:49:09.493Z,3.83
2023-03-16T00:52:15.791Z,4.28
2023-03-16T00:55:18.748Z,4.05
2023-03-16T00:58:20.455Z,4.10
2023-03-16T01:01:22.137Z,4.18
2023-03-16T01:04:23.879Z,3.75
2023-03-16T01:07:25.733Z,4.10
2023-03-16T01:10:27.836Z,4.07
2023-03-16T01:13:30.087Z,3.92
2023-03-16T01:16:33.927Z,4.40
2023-03-16T01:19:37.365Z,3.70
2023-03-16T01:22:39.265Z,4.32
2023-03-16T01:25:41.338Z,4.40
2023-03-16T01:28:44.505Z,4.03
2023-03-16T01:31:46.403Z,4.03
2023-03-16T01:34:48.609Z,4.20
2023-03-16T01:37:51.598Z,5.00
2023-03-16T01:40:58.152Z,4.85
2023-03-16T01:44:00.013Z,4.40
2023-03-16T01:47:03.116Z,5.20
2023-03-16T01:50:06.617Z,4.57
2023-03-16T01:53:11.973Z,4.32
2023-03-16T01:56:18.772Z,4.97
2023-03-16T01:59:23.798Z,4.80
2023-03-16T02:02:30.063Z,4.60
2023-03-16T02:05:43.720Z,4.03
2023-03-16T02:08:50.274Z,4.53
2023-03-16T02:11:54.432Z,4.70
2023-03-16T02:14:57.365Z,4.00
2023-03-16T02:18:00.407Z,4.43
2023-03-16T02:21:21.386Z,4.35
2023-03-16T02:24:23.314Z,4.65
2023-03-16T02:27:35.282Z,4.45
2023-03-16T02:30:37.458Z,4.40
2023-03-16T02:33:41.664Z,4.00
2023-03-16T02:36:46.597Z,4.20
2023-03-16T02:39:48.454Z,4.63
2023-03-16T02:43:06.807Z,4.50
2023-03-16T02:46:15.032Z,6.15
2023-03-16T02:49:27.332Z,5.00
2023-03-16T02:52:29.417Z,4.60
2023-03-16T02:55:31.230Z,4.65
2023-03-16T02:58:33.207Z,5.00
2023-03-16T03:01:37.226Z,5.45
2023-03-16T03:04:38.975Z,5.25
2023-03-16T03:07:42.220Z,5.38
2023-03-16T03:10:44.062Z,4.80
2023-03-16T03:13:47.011Z,5.78
2023-03-16T03:16:53.450Z,5.35
2023-03-16T03:19:55.568Z,5.35
2023-03-16T03:22:57.276Z,5.45
2023-03-16T03:26:00.006Z,5.18
2023-03-16T03:29:02.701Z,5.70
2023-03-16T03:32:05.174Z,5.75
2023-03-16T03:35:07.592Z,5.30
2023-03-16T03:38:09.660Z,4.72
2023-03-16T03:41:11.663Z,5.35
2023-03-16T03:44:14.712Z,5.00
2023-03-16T03:47:16.598Z,4.95
2023-03-16T03:50:18.633Z,5.03
2023-03-16T03:53:34.213Z,5.20
2023-03-16T03:56:49.033Z,5.45
2023-03-16T03:59:51.675Z,5.53
2023-03-16T04:03:12.299Z,5.55
2023-03-16T04:06:18.744Z,4.93
2023-03-16T04:09:20.578Z,5.35
2023-03-16T04:12:23.027Z,5.30
2023-03-16T04:15:26.429Z,5.95
2023-03-16T04:19:06.902Z,5.75
2023-03-16T04:22:08.714Z,5.80
2023-03-16T04:25:12.554Z,4.90
2023-03-16T04:28:17.869Z,5.40
2023-03-16T04:31:22.626Z,4.70
2023-03-16T04:34:25.237Z,5.60
2023-03-16T04:37:31.125Z,5.95
2023-03-16T04:40:33.010Z,5.32
2023-03-16T04:43:43.284Z,5.30
2023-03-16T04:46:52.516Z,5.65
2023-03-16T04:49:55.903Z,5.47
2023-03-16T04:52:59.070Z,5.55
2023-03-16T04:56:02.208Z,5.30
2023-03-16T04:59:05.168Z,5.38
2023-03-16T05:02:17.805Z,5.07
2023-03-16T05:05:20.271Z,5.13
2023-03-16T05:08:22.678Z,5.47
2023-03-16T05:11:25.927Z,4.60
2023-03-16T05:14:32.545Z,5.40
2023-03-16T05:17:46.976Z,4.80
2023-03-16T05:20:51.994Z,5.32
2023-03-16T05:23:53.977Z,4.93
2023-03-16T05:26:55.991Z,4.38
2023-03-16T05:29:59.056Z,4.57
2023-03-16T05:33:02.341Z,4.80
2023-03-16T05:36:04.976Z,4.78
2023-03-16T05:39:08.734Z,4.60
2023-03-16T05:42:15.004Z,4.20
2023-03-16T05:45:24.122Z,4.45
2023-03-16T05:48:37.861Z,4.55
2023-03-16T05:51:41.258Z,5.10
2023-03-16T05:54:44.322Z,4.38
2023-03-16T05:57:46.322Z,4.45
2023-03-16T06:00:48.263Z,4.35
2023-03-16T06:03:57.254Z,4.40
2023-03-16T06:07:01.865Z,4.50
2023-03-16T06:10:06.538Z,4.25
2023-03-16T06:13:09.568Z,4.10
2023-03-16T06:16:13.934Z,5.00
2023-03-16T06:19:15.896Z,3.88
2023-03-16T06:22:18.561Z,3.65
2023-03-16T06:25:20.685Z,4.05
2023-03-16T06:28:23.265Z,3.60
2023-03-16T06:31:25.303Z,3.65
2023-03-16T06:34:27.228Z,3.53
2023-03-16T06:37:31.329Z,4.00
2023-03-16T06:40:36.450Z,4.45
2023-03-16T06:43:38.557Z,4.10
2023-03-16T06:46:40.485Z,3.85
2023-03-16T06:49:43.353Z,4.00
2023-03-16T06:52:53.126Z,3.80
2023-03-16T06:55:55.013Z,3.88
2023-03-16T06:58:57.303Z,4.85
2023-03-16T07:01:59.107Z,5.93
2023-03-16T07:05:01.225Z,5.05
2023-03-16T07:08:04.993Z,4.57
2023-03-16T07:11:07.197Z,4.97
2023-03-16T07:14:10.374Z,5.60
2023-03-16T07:17:12.196Z,4.40
2023-03-16T07:20:14.132Z,4.65
2023-03-16T07:23:18.183Z,4.75
2023-03-16T07:26:20.022Z,5.00
2023-03-16T07:29:29.429Z,4.30
2023-03-16T07:32:32.700Z,4.45
2023-03-16T07:35:35.296Z,4.40
2023-03-16T07:38:37.846Z,3.75
2023-03-16T07:41:40.485Z,3.50
2023-03-16T07:44:51.909Z,3.97
2023-03-16T07:47:53.835Z,3.08
2023-03-16T07:51:18.354Z,3.63
2023-03-16T07:54:24.382Z,3.70
2023-03-16T07:57:26.386Z,3.28
2023-03-16T08:00:28.788Z,3.25
2023-03-16T08:03:32.192Z,3.47
2023-03-16T08:06:34.069Z,3.03
2023-03-16T08:09:37.763Z,3.00
2023-03-16T08:12:42.597Z,3.20
2023-03-16T08:16:01.990Z,3.40
2023-03-16T08:19:12.041Z,2.97
2023-03-16T08:22:14.268Z,2.80
2023-03-16T08:25:22.480Z,2.20
2023-03-16T08:28:35.795Z,3.10
2023-03-16T08:31:42.966Z,3.10
2023-03-16T08:34:53.854Z,3.03
2023-03-16T08:37:56.578Z,2.58
2023-03-16T08:40:58.592Z,2.70
2023-03-16T08:44:01.066Z,3.10
2023-03-16T08:47:05.282Z,2.83
2023-03-16T08:50:10.218Z,3.05
2023-03-16T08:53:14.096Z,2.88
2023-03-16T08:56:15.824Z,2.72
2023-03-16T08:59:29.170Z,2.90
2023-03-16T09:02:31.708Z,2.80
2023-03-16T09:05:34.351Z,2.80
2023-03-16T09:08:39.197Z,2.47
2023-03-16T09:11:41.797Z,2.30
2023-03-16T09:14:43.661Z,2.85
2023-03-16T09:17:45.952Z,2.53
2023-03-16T09:20:50.433Z,2.50
2023-03-16T09:23:52.339Z,2.38
2023-03-16T09:26:54.029Z,2.85
2023-03-16T09:29:56.579Z,2.63
2023-03-16T09:32:58.880Z,2.75
2023-03-16T09:36:00.817Z,2.67
2023-03-16T09:39:03.666Z,2.53
2023-03-16T09:42:41.422Z,2.55
2023-03-16T09:45:56.648Z,2.72
2023-03-16T09:48:59.467Z,2.83
2023-03-16T09:52:30.411Z,3.08
2023-03-16T09:55:37.881Z,3.40
2023-03-16T09:58:39.690Z,3.47
2023-03-16T10:01:57.164Z,3.25
2023-03-16T10:05:12.677Z,2.90
2023-03-16T10:08:18.639Z,2.97
2023-03-16T10:11:47.247Z,2.88
2023-03-16T10:15:13.001Z,3.30
2023-03-16T10:18:21.316Z,3.25
2023-03-16T10:21:24.701Z,2.63
2023-03-16T10:24:45.012Z,2.50
2023-03-16T10:27:48.283Z,2.83
2023-03-16T10:30:55.461Z,2.63
2023-03-16T10:34:05.234Z,2.75
2023-03-16T10:37:13.702Z,2.75
2023-03-16T10:40:20.400Z,2.88
2023-03-16T10:43:22.774Z,2.78
2023-03-16T10:46:27.654Z,2.60
2023-03-16T10:49:42.340Z,3.40
2023-03-16T10:52:47.022Z,2.65
2023-03-16T10:55:50.427Z,2.72
2023-03-16T10:58:52.427Z,2.50
2023-03-16T11:01:54.645Z,2.72
2023-03-16T11:04:57.546Z,2.58
2023-03-16T11:08:02.656Z,2.58
2023-03-16T11:11:17.908Z,2.67
2023-03-16T11:14:23.463Z,2.92
2023-03-16T11:17:38.349Z,2.38
2023-03-16T11:20:40.097Z,3.05
2023-03-16T11:23:49.774Z,2.83
2023-03-16T11:26:58.717Z,2.92
2023-03-16T11:30:41.797Z,2.72
2023-03-16T11:33:43.637Z,2.20
2023-03-16T11:37:10.118Z,1.90
2023-03-16T11:40:33.307Z,2.88
2023-03-16T11:43:50.110Z,2.10
2023-03-16T11:47:14.646Z,2.60
2023-03-16T11:50:25.916Z,2.50
2023-03-16T11:53:52.554Z,2.55
2023-03-16T11:57:30.840Z,2.55
2023-03-16T12:01:10.494Z,2.33
2023-03-16T12:07:45.157Z,2.42
2023-03-16T12:10:57.166Z,2.17
2023-03-16T12:14:15.857Z,2.40
2023-03-16T12:17:25.983Z,2.45
2023-03-16T12:20:32.160Z,2.42
2023-03-16T12:23:38.783Z,2.65
2023-03-16T12:26:42.874Z,2.35
2023-03-16T12:30:14.415Z,2.53
2023-03-16T12:33:28.398Z,2.08
2023-03-16T12:36:52.876Z,2.28
2023-03-16T12:40:09.221Z,2.20
2023-03-16T12:43:11.004Z,1.92
2023-03-16T12:46:42.094Z,2.40
2023-03-16T12:49:44.259Z,2.05
2023-03-16T12:52:51.943Z,1.80
2023-03-16T12:55:53.782Z,2.10
2023-03-16T12:58:58.347Z,2.22
2023-03-16T13:02:03.726Z,2.10
2023-03-16T13:05:14.504Z,2.10
2023-03-16T13:08:18.647Z,2.50
2023-03-16T13:11:20.482Z,1.90
2023-03-16T13:14:40.515Z,1.90
2023-03-16T13:17:42.979Z,2.13
2023-03-16T13:20:57.941Z,2.50
2023-03-16T13:24:13.901Z,1.80
2023-03-16T13:27:26.787Z,2.20
2023-03-16T13:30:32.112Z,1.95
2023-03-16T13:33:37.026Z,2.60
2023-03-16T13:36:39.434Z,2.33
2023-03-16T13:39:41.750Z,1.98
2023-03-16T13:42:49.694Z,2.10
2023-03-16T13:45:52.030Z,2.00
2023-03-16T13:48:53.786Z,2.38
2023-03-16T13:51:55.626Z,2.22
2023-03-16T13:54:59.213Z,2.00
2023-03-16T13:58:01.839Z,2.25
2023-03-16T14:01:12.093Z,1.90
2023-03-16T14:04:18.710Z,2.10
2023-03-16T14:07:23.938Z,2.00
2023-03-16T14:10:35.463Z,2.00
2023-03-16T14:13:39.270Z,1.88
2023-03-16T14:16:41.202Z,2.20
2023-03-16T14:19:52.352Z,2.22
2023-03-16T14:22:54.576Z,2.30
2023-03-16T14:25:56.647Z,2.58
2023-03-16T14:29:05.277Z,2.40
2023-03-16T14:32:28.126Z,2.13
2023-03-16T14:35:41.841Z,2.10
2023-03-16T14:38:45.666Z,2.20
2023-03-16T14:41:52.437Z,1.98
2023-03-16T14:44:54.747Z,2.35
2023-03-16T14:48:04.394Z,2.10
2023-03-16T14:51:06.802Z,1.83
2023-03-16T14:54:21.849Z,1.85
2023-03-16T14:57:26.054Z,2.00
2023-03-16T15:00:30.171Z,1.80
2023-03-16T15:03:36.306Z,1.67
2023-03-16T15:06:38.288Z,1.80
2023-03-16T15:09:44.568Z,1.70
2023-03-16T15:12:50.742Z,1.77
2023-03-16T15:15:52.536Z,1.90
2023-03-16T15:18:54.386Z,1.70
2023-03-16T15:22:03.849Z,1.90
2023-03-16T15:25:36.392Z,1.92
2023-03-16T15:28:38.773Z,2.05
2023-03-16T15:31:40.929Z,2.35
2023-03-16T15:34:45.909Z,2.72
2023-03-16T15:37:48.007Z,2.22
2023-03-16T15:40:51.443Z,2.22
2023-03-16T15:43:53.863Z,2.83
2023-03-16T15:46:56.063Z,2.13
2023-03-16T15:49:57.840Z,2.65
2023-03-16T15:53:09.053Z,2.13
2023-03-16T15:56:14.019Z,2.20
2023-03-16T15:59:19.106Z,1.70
2023-03-16T16:02:32.078Z,2.05
2023-03-16T16:05:34.173Z,2.10
2023-03-16T16:08:36.012Z,2.38
2023-03-16T16:11:38.711Z,2.00
2023-03-16T16:14:41.824Z,1.60
2023-03-16T16:17:56.746Z,1.92
2023-03-16T16:21:07.209Z,2.00
2023-03-16T16:24:10.813Z,1.77
2023-03-16T16:27:12.979Z,1.77
2023-03-16T16:30:27.612Z,1.95
2023-03-16T16:33:35.057Z,2.10
2023-03-16T16:36:36.854Z,1.98
2023-03-16T16:39:38.654Z,2.78
2023-03-16T16:42:41.579Z,2.30
2023-03-16T16:45:43.750Z,3.00
2023-03-16T16:48:48.179Z,3.30
2023-03-16T16:51:50.597Z,3.30
2023-03-16T16:54:52.453Z,2.88
2023-03-16T16:57:55.056Z,2.25
2023-03-16T17:00:59.013Z,2.20
2023-03-16T17:04:02.543Z,2.97
2023-03-16T17:07:06.615Z,3.17
2023-03-16T17:10:16.378Z,2.75
2023-03-16T17:13:26.656Z,3.35
2023-03-16T17:16:32.337Z,3.03
2023-03-16T17:19:34.397Z,3.10
2023-03-16T17:22:37.224Z,2.67
2023-03-16T17:25:40.761Z,2.38
2023-03-16T17:28:47.528Z,3.22
2023-03-16T17:31:50.022Z,3.50
2023-03-16T17:34:52.254Z,3.00
2023-03-16T17:37:54.072Z,2.85
2023-03-16T17:40:56.473Z,2.58
2023-03-16T17:44:02.690Z,2.40
2023-03-16T17:47:11.504Z,2.40
2023-03-16T17:50:26.815Z,3.38
2023-03-16T17:53:28.715Z,3.20
2023-03-16T17:56:32.100Z,3.67
2023-03-16T17:59:33.775Z,3.65
2023-03-16T18:02:42.846Z,4.60
2023-03-16T18:05:46.143Z,5.30
2023-03-16T18:08:48.639Z,5.63
2023-03-16T18:11:51.393Z,6.10
2023-03-16T18:14:58.721Z,7.10
2023-03-16T18:18:01.598Z,8.67
2023-03-16T18:21:04.402Z,8.30
2023-03-16T18:24:15.866Z,8.45
2023-03-16T18:27:18.320Z,7.80
2023-03-16T18:30:20.137Z,6.00
2023-03-16T18:33:30.980Z,5.25
2023-03-16T18:36:36.145Z,5.82
2023-03-16T18:39:38.966Z,5.80
2023-03-16T18:42:41.910Z,6.90
2023-03-16T18:45:45.989Z,6.68
2023-03-16T18:48:48.605Z,7.78
2023-03-16T18:51:53.366Z,7.10
2023-03-16T18:54:55.962Z,10.40
2023-03-16T18:57:58.896Z,10.82
2023-03-16T19:01:01.802Z,10.95
2023-03-16T19:04:03.744Z,10.30
2023-03-16T19:07:10.956Z,9.85
2023-03-16T19:10:35.772Z,12.80
2023-03-16T19:13:37.620Z,11.27
2023-03-16T19:16:40.071Z,12.60
2023-03-16T19:19:42.840Z,14.50
2023-03-16T19:22:48.287Z,9.80
2023-03-16T19:25:51.580Z,8.90
2023-03-16T19:28:53.708Z,9.65
2023-03-16T19:31:56.993Z,9.27
2023-03-16T19:34:59.099Z,8.30
2023-03-16T19:38:01.239Z,6.82
2023-03-16T19:41:06.282Z,6.80
2023-03-16T19:44:20.264Z,6.25
2023-03-16T19:47:39.260Z,12.63
2023-03-16T19:50:43.172Z,16.33
2023-03-16T19:53:46.708Z,14.85
2023-03-16T19:56:50.226Z,14.35
2023-03-16T19:59:56.837Z,10.73
2023-03-16T20:02:58.970Z,9.85
2023-03-16T20:06:01.046Z,10.00
2023-03-16T20:09:02.788Z,12.55
2023-03-16T20:12:04.659Z,12.63
2023-03-16T20:15:07.221Z,12.70
2023-03-16T20:18:16.597Z,12.75
2023-03-16T20:21:18.460Z,13.88
2023-03-16T20:24:21.636Z,13.40
2023-03-16T20:27:24.581Z,13.30
2023-03-16T20:30:26.697Z,12.77
2023-03-16T20:33:28.943Z,13.70
2023-03-16T20:36:31.030Z,14.82
2023-03-16T20:39:32.890Z,14.23
2023-03-16T20:42:35.204Z,13.32
2023-03-16T20:45:37.481Z,18.92
2023-03-16T20:48:39.631Z,18.35
2023-03-16T20:51:44.555Z,17.40
2023-03-16T20:54:46.576Z,15.98
2023-03-16T20:57:49.735Z,17.15
2023-03-16T21:00:53.323Z,16.40
2023-03-16T21:03:56.162Z,17.65
2023-03-16T21:06:57.955Z,15.85
2023-03-16T21:09:59.650Z,15.60
2023-03-16T21:13:01.593Z,12.25
2023-03-16T21:16:04.811Z,14.52
2023-03-16T21:19:17.859Z,15.68
2023-03-16T21:22:34.925Z,14.88
2023-03-16T21:25:44.144Z,14.32
2023-03-16T21:28:58.176Z,12.52
2023-03-16T21:32:00.015Z,11.20
2023-03-16T21:35:01.875Z,11.43
2023-03-16T21:38:19.848Z,11.13
2023-03-16T21:41:22.113Z,12.63
2023-03-16T21:44:23.881Z,11.32
2023-03-16T21:47:28.253Z,10.35
2023-03-16T21:50:35.306Z,11.07
2023-03-16T21:53:38.426Z,10.15
2023-03-16T21:56:41.902Z,8.88
2023-03-16T21:59:43.753Z,9.32
2023-03-16T22:02:47.809Z,9.90
2023-03-16T22:05:49.878Z,9.73
2023-03-16T22:08:52.399Z,10.52
2023-03-16T22:11:54.204Z,11.25
2023-03-16T22:14:56.153Z,10.07
2023-03-16T22:18:01.813Z,21.48
2023-03-16T22:21:23.584Z,13.77
2023-03-16T22:24:30.492Z,10.70
2023-03-16T22:27:32.327Z,9.52
2023-03-16T22:30:34.186Z,8.10
2023-03-16T22:33:37.706Z,9.15
2023-03-16T22:36:39.466Z,8.70
2023-03-16T22:39:41.326Z,8.77
2023-03-16T22:42:43.182Z,10.07
2023-03-16T22:45:44.976Z,9.48
2023-03-16T22:48:47.056Z,10.90
2023-03-16T22:51:51.500Z,10.50
2023-03-16T22:54:53.432Z,12.57
2023-03-16T22:58:36.522Z,11.30
2023-03-16T23:01:43.655Z,10.90
2023-03-16T23:04:45.917Z,11.52
2023-03-16T23:07:47.852Z,10.82
2023-03-16T23:10:52.080Z,11.65
2023-03-16T23:13:54.726Z,10.88
2023-03-16T23:16:56.882Z,9.85
2023-03-16T23:19:58.623Z,8.98
2023-03-16T23:23:00.506Z,8.55
2023-03-16T23:26:02.252Z,8.45
2023-03-16T23:29:04.135Z,12.15
2023-03-16T23:32:06.413Z,14.10
2023-03-16T23:35:23.118Z,13.77
2023-03-16T23:38:24.811Z,14.32
2023-03-16T23:41:26.632Z,17.85
2023-03-16T23:44:29.245Z,11.15
2023-03-16T23:47:31.061Z,12.52
2023-03-16T23:50:35.773Z,13.38
2023-03-16T23:53:38.185Z,9.55
2023-03-16T23:56:39.942Z,7.93
2023-03-16T23:59:42.382Z,6.25
